Time;durP1;ratioP1;P1;durP2;ratioP2;P2;SDS_P1;SDS_P2;PMS_P1;PMS_P2;Temp;Humidity;BMP_temperature;BMP_pressure;BME280_temperature;BME280_humidity;BME280_pressure;Samples;Min_cycle;Max_cycle;Signal;HPM_P1;HPM_P2
2022/10/17 00:00:19;;;;;;;7.20;3.53;;;13.60;99.90;;;;;;5033955;28;20808;-65
2022/10/17 00:02:46;;;;;;;3.70;2.90;;;13.60;99.90;;;;;;5034348;28;20841;-65
2022/10/17 00:05:15;;;;;;;3.67;3.37;;;13.60;99.90;;;;;;5033839;28;20441;-64
2022/10/17 00:07:41;;;;;;;3.63;3.33;;;13.60;99.90;;;;;;5033464;28;20800;-64
2022/10/17 00:10:08;;;;;;;5.87;3.17;;;13.60;99.90;;;;;;5032904;28;20445;-64
2022/10/17 00:12:35;;;;;;;3.80;3.50;;;13.60;99.90;;;;;;5033065;28;20465;-64
2022/10/17 00:15:04;;;;;;;5.80;3.20;;;13.60;99.90;;;;;;5032923;28;20847;-64
2022/10/17 00:17:31;;;;;;;3.80;3.03;;;13.60;99.90;;;;;;5032574;28;20445;-64
2022/10/17 00:19:58;;;;;;;3.87;3.57;;;13.60;99.90;;;;;;5032871;28;20449;-63
2022/10/17 00:22:27;;;;;;;2.97;2.77;;;13.60;99.90;;;;;;5033000;28;20465;-64
2022/10/17 00:24:54;;;;;;;3.03;2.63;;;13.50;99.90;;;;;;5032717;28;20445;-63
2022/10/17 00:27:20;;;;;;;3.73;3.43;;;13.50;99.90;;;;;;5037939;28;20445;-63
2022/10/17 00:29:48;;;;;;;3.07;2.80;;;13.50;99.90;;;;;;5037786;28;20448;-64
2022/10/17 00:32:15;;;;;;;3.30;3.00;;;13.50;99.90;;;;;;5037116;28;20485;-64
2022/10/17 00:34:42;;;;;;;4.53;3.07;;;13.50;99.90;;;;;;5037255;28;20840;-64
2022/10/17 00:37:09;;;;;;;3.23;2.93;;;13.50;99.90;;;;;;5037760;28;20449;-64
2022/10/17 00:39:37;;;;;;;6.93;3.50;;;13.50;99.90;;;;;;5037191;28;20967;-64
2022/10/17 00:42:04;;;;;;;5.10;3.40;;;13.40;99.90;;;;;;5036928;28;20471;-65
2022/10/17 00:45:02;;;;;;;3.27;2.90;;;13.40;99.90;;;;;;5036478;28;20936;-64
2022/10/17 00:47:30;;;;;;;4.73;3.37;;;13.40;99.90;;;;;;5036933;28;20441;-64
2022/10/17 00:49:58;;;;;;;6.40;3.33;;;13.30;99.90;;;;;;5036552;28;20493;-64
2022/10/17 00:52:28;;;;;;;5.77;3.80;;;13.30;99.90;;;;;;5036215;28;20475;-64
2022/10/17 00:55:00;;;;;;;4.90;3.53;;;13.30;99.90;;;;;;5036296;28;20476;-64
2022/10/17 00:57:29;;;;;;;5.80;4.00;;;13.20;99.90;;;;;;5036422;28;20547;-64
2022/10/17 00:59:58;;;;;;;4.33;3.90;;;13.20;99.90;;;;;;5035878;28;20815;-64
2022/10/17 01:02:25;;;;;;;4.37;3.97;;;13.20;99.90;;;;;;5036165;28;20468;-65
2022/10/17 01:04:58;;;;;;;5.03;3.93;;;13.20;99.90;;;;;;5036150;28;20437;-64
2022/10/17 01:07:25;;;;;;;5.00;3.97;;;13.10;99.90;;;;;;5036097;28;20437;-64
2022/10/17 01:09:52;;;;;;;7.27;4.40;;;13.10;99.90;;;;;;5036043;28;20445;-64
2022/10/17 01:12:23;;;;;;;5.57;4.40;;;13.10;99.90;;;;;;5036067;28;20472;-64
2022/10/17 01:15:05;;;;;;;5.03;4.40;;;13.10;99.90;;;;;;5035689;28;20432;-65
2022/10/17 01:17:40;;;;;;;5.23;4.60;;;13.10;99.90;;;;;;5035959;28;20433;-64
2022/10/17 01:20:35;;;;;;;4.30;3.90;;;13.10;99.90;;;;;;5036312;28;20433;-64
2022/10/17 01:23:17;;;;;;;4.20;3.70;;;13.10;99.90;;;;;;5036383;28;20460;-64
2022/10/17 01:25:53;;;;;;;4.30;3.90;;;13.00;99.90;;;;;;5036744;28;20425;-65
2022/10/17 01:28:58;;;;;;;4.13;3.70;;;13.00;99.90;;;;;;5036895;28;20429;-64
2022/10/17 01:31:34;;;;;;;4.60;3.63;;;13.00;99.90;;;;;;5001997;28;20551;-63
2022/10/17 01:34:06;;;;;;;4.90;3.73;;;13.00;99.90;;;;;;5037550;28;20760;-63
2022/10/17 01:36:39;;;;;;;5.07;3.83;;;13.00;99.90;;;;;;5037185;28;20464;-63
2022/10/17 01:39:14;;;;;;;5.47;4.00;;;13.10;99.90;;;;;;5036926;28;20437;-63
2022/10/17 01:41:44;;;;;;;5.40;3.83;;;13.10;99.90;;;;;;5037391;28;20816;-62
2022/10/17 01:44:15;;;;;;;4.70;3.63;;;13.10;99.90;;;;;;5036667;28;20460;-63
2022/10/17 01:46:46;;;;;;;4.60;4.10;;;13.10;99.90;;;;;;5037543;28;20428;-63
2022/10/17 01:49:16;;;;;;;4.20;3.80;;;13.20;99.90;;;;;;5038321;28;20429;-63
2022/10/17 01:51:47;;;;;;;4.33;3.83;;;13.20;99.90;;;;;;5037520;28;20445;-64
2022/10/17 01:54:18;;;;;;;3.90;3.50;;;13.20;99.90;;;;;;5037857;28;20441;-63
2022/10/17 01:56:47;;;;;;;4.30;3.90;;;13.20;99.90;;;;;;5037916;28;20476;-63
2022/10/17 01:59:19;;;;;;;4.57;4.10;;;13.20;99.90;;;;;;5037423;28;20437;-63
2022/10/17 02:01:52;;;;;;;6.50;3.83;;;13.10;99.90;;;;;;5037009;28;20433;-64
2022/10/17 02:04:20;;;;;;;4.07;3.73;;;13.10;99.90;;;;;;5037351;28;20775;-63
2022/10/17 02:06:46;;;;;;;5.23;4.13;;;13.10;99.90;;;;;;5037287;28;20448;-63
2022/10/17 02:09:19;;;;;;;6.30;3.80;;;13.10;99.90;;;;;;5037058;28;20532;-64
2022/10/17 02:11:55;;;;;;;5.10;3.23;;;13.10;99.90;;;;;;5036385;28;20449;-64
2022/10/17 02:14:32;;;;;;;4.23;3.60;;;13.00;99.90;;;;;;5037141;28;20492;-64
2022/10/17 02:17:08;;;;;;;3.60;3.30;;;13.00;99.90;;;;;;5035938;28;21028;-63
2022/10/17 02:19:43;;;;;;;5.20;3.57;;;13.10;99.90;;;;;;5036456;28;20433;-63
2022/10/17 02:22:22;;;;;;;3.93;3.50;;;13.10;99.90;;;;;;5035768;28;20465;-64
2022/10/17 02:24:53;;;;;;;3.93;3.50;;;13.10;99.90;;;;;;5035740;28;20444;-63
2022/10/17 02:27:28;;;;;;;5.50;3.60;;;13.10;99.90;;;;;;5035599;28;20437;-65
2022/10/17 02:29:58;;;;;;;4.40;3.30;;;13.10;99.90;;;;;;5034871;28;20432;-64
2022/10/17 02:32:33;;;;;;;4.93;3.83;;;13.10;99.90;;;;;;5034353;28;20477;-64
2022/10/17 02:35:03;;;;;;;3.00;2.77;;;13.10;99.90;;;;;;5034484;28;20440;-64
2022/10/17 02:37:32;;;;;;;3.37;3.07;;;13.10;99.90;;;;;;5034259;28;20879;-64
2022/10/17 02:40:01;;;;;;;3.77;3.40;;;13.20;99.90;;;;;;5034610;28;20767;-64
2022/10/17 02:42:29;;;;;;;3.70;3.40;;;13.20;99.90;;;;;;5034291;28;20807;-64
2022/10/17 02:44:59;;;;;;;4.53;3.93;;;13.20;99.90;;;;;;5034640;28;20476;-64
2022/10/17 02:47:32;;;;;;;3.63;3.33;;;13.20;99.90;;;;;;5034199;28;20445;-64
2022/10/17 02:49:59;;;;;;;3.50;3.20;;;13.20;99.90;;;;;;5033487;28;20429;-63
2022/10/17 02:52:33;;;;;;;3.83;3.10;;;13.20;99.90;;;;;;5034444;28;20461;-65
2022/10/17 02:55:06;;;;;;;4.40;3.53;;;13.20;99.90;;;;;;5034450;28;20430;-64
2022/10/17 02:57:37;;;;;;;7.17;3.50;;;13.20;99.90;;;;;;5034612;28;20417;-64
2022/10/17 03:00:06;;;;;;;5.20;4.10;;;13.10;99.90;;;;;;5034540;28;20429;-64
2022/10/17 03:02:41;;;;;;;4.83;4.30;;;13.10;99.90;;;;;;5034281;28;20465;-64
2022/10/17 03:05:09;;;;;;;4.33;3.97;;;13.10;99.90;;;;;;5034340;28;20428;-64
2022/10/17 03:07:35;;;;;;;7.63;4.07;;;13.10;99.90;;;;;;5034305;28;20955;-64
2022/10/17 03:10:02;;;;;;;8.00;4.80;;;13.10;99.90;;;;;;5034298;28;20455;-64
2022/10/17 03:12:29;;;;;;;4.60;4.13;;;13.10;99.90;;;;;;5034278;28;20499;-64
2022/10/17 03:14:56;;;;;;;5.73;5.20;;;13.20;99.90;;;;;;5034625;28;20449;-64
2022/10/17 03:17:22;;;;;;;5.90;5.30;;;13.20;99.90;;;;;;5034549;28;20480;-64
2022/10/17 03:19:50;;;;;;;5.83;5.00;;;13.20;99.90;;;;;;5034827;28;20460;-64
2022/10/17 03:22:17;;;;;;;5.53;5.03;;;13.20;99.90;;;;;;5034363;28;20465;-64
2022/10/17 03:24:44;;;;;;;5.87;5.37;;;13.20;99.90;;;;;;5034372;28;20471;-64
2022/10/17 03:27:11;;;;;;;9.20;5.17;;;13.20;99.90;;;;;;5034735;28;20488;-64
2022/10/17 03:29:38;;;;;;;5.67;4.97;;;13.20;99.90;;;;;;5033781;28;20524;-64
2022/10/17 03:32:05;;;;;;;5.53;4.77;;;13.20;99.90;;;;;;5059746;22;20485;-64
2022/10/17 03:34:32;;;;;;;6.30;5.13;;;13.20;99.90;;;;;;5072721;28;20525;-63
2022/10/17 03:37:00;;;;;;;6.97;5.07;;;13.20;99.90;;;;;;5074437;28;20483;-63
2022/10/17 03:39:27;;;;;;;5.57;5.00;;;13.20;99.90;;;;;;5074647;28;20459;-63
2022/10/17 03:41:54;;;;;;;7.80;5.13;;;13.20;99.90;;;;;;5073798;28;20446;-64
2022/10/17 03:44:20;;;;;;;5.47;4.97;;;13.20;99.90;;;;;;5073881;28;20462;-64
2022/10/17 03:46:47;;;;;;;7.47;4.73;;;13.30;99.90;;;;;;5073302;28;20443;-64
2022/10/17 03:49:14;;;;;;;5.20;4.40;;;13.30;99.90;;;;;;5073060;28;20802;-63
2022/10/17 03:51:41;;;;;;;5.50;5.00;;;13.40;99.90;;;;;;5073332;28;20447;-64
2022/10/17 03:54:09;;;;;;;5.40;4.90;;;13.40;99.90;;;;;;5073496;28;20463;-63
2022/10/17 03:56:36;;;;;;;5.60;5.00;;;13.40;99.90;;;;;;5073584;28;20840;-63
2022/10/17 03:59:02;;;;;;;5.27;4.77;;;13.50;99.90;;;;;;5073323;28;20448;-64
2022/10/17 04:01:29;;;;;;;5.30;4.80;;;13.50;99.90;;;;;;5072886;28;20455;-62
2022/10/17 04:03:57;;;;;;;5.47;4.97;;;13.60;99.90;;;;;;5072741;28;20986;-66
2022/10/17 04:06:24;;;;;;;4.80;4.23;;;13.60;99.90;;;;;;5072715;28;20440;-62
2022/10/17 04:10:23;;;;;;;5.17;4.67;;;13.60;99.90;;;;;;5152718;27;21129;-64
2022/10/17 04:12:49;;;;;;;6.23;5.63;;;13.60;99.90;;;;;;5130935;27;20464;-64
2022/10/17 04:15:16;;;;;;;5.90;5.30;;;13.60;99.90;;;;;;5131638;28;20450;-64
2022/10/17 04:17:43;;;;;;;5.53;4.87;;;13.60;99.90;;;;;;5131631;28;20456;-64
2022/10/17 04:20:10;;;;;;;5.73;4.97;;;13.60;99.90;;;;;;5131198;28;20429;-65
2022/10/17 04:22:37;;;;;;;5.60;5.10;;;13.60;99.90;;;;;;5130988;28;20464;-64
2022/10/17 04:25:04;;;;;;;9.30;5.43;;;13.60;99.90;;;;;;5130741;27;20440;-64
2022/10/17 04:27:32;;;;;;;5.80;5.07;;;13.60;99.90;;;;;;5130714;27;20432;-64
2022/10/17 04:29:59;;;;;;;6.00;4.93;;;13.60;99.90;;;;;;5130718;27;20980;-64
2022/10/17 04:32:26;;;;;;;5.77;4.43;;;13.70;99.90;;;;;;5131037;27;20469;-64
2022/10/17 04:34:53;;;;;;;5.57;4.70;;;13.70;99.90;;;;;;5130771;27;20948;-64
2022/10/17 04:37:20;;;;;;;5.07;4.50;;;13.70;99.90;;;;;;5130863;27;20440;-64
2022/10/17 04:39:46;;;;;;;5.97;5.47;;;13.70;99.90;;;;;;5130908;27;20801;-64
2022/10/17 04:42:13;;;;;;;5.57;5.03;;;13.70;99.90;;;;;;5130297;28;20947;-65
2022/10/17 04:44:41;;;;;;;7.07;5.57;;;13.80;99.90;;;;;;5130625;28;20444;-64
2022/10/17 04:47:08;;;;;;;5.40;4.90;;;13.80;99.90;;;;;;5130986;27;20440;-64
2022/10/17 04:49:35;;;;;;;5.73;5.13;;;13.80;99.90;;;;;;5130320;27;21002;-64
2022/10/17 04:52:02;;;;;;;5.37;4.87;;;13.90;99.90;;;;;;5130618;27;20448;-65
2022/10/17 04:54:28;;;;;;;5.73;5.13;;;13.90;99.90;;;;;;5130819;28;20480;-65
2022/10/17 04:56:55;;;;;;;5.50;5.00;;;13.90;99.90;;;;;;5130687;27;20444;-65
2022/10/17 04:59:22;;;;;;;5.57;4.53;;;13.90;99.90;;;;;;5130467;27;20441;-63
2022/10/17 05:01:50;;;;;;;5.93;5.27;;;13.90;99.90;;;;;;5130950;27;20451;-64
2022/10/17 05:04:17;;;;;;;6.53;4.80;;;13.90;99.90;;;;;;5130722;27;20469;-64
2022/10/17 05:06:44;;;;;;;5.60;4.43;;;14.00;99.90;;;;;;5129798;28;20959;-63
2022/10/17 05:09:10;;;;;;;7.73;5.00;;;14.00;99.90;;;;;;5130074;27;20796;-64
2022/10/17 05:11:37;;;;;;;5.27;4.77;;;14.00;99.90;;;;;;5129940;27;20532;-64
2022/10/17 05:14:05;;;;;;;5.63;4.90;;;13.90;99.90;;;;;;5129575;27;20457;-63
2022/10/17 05:16:31;;;;;;;5.10;4.60;;;14.00;99.90;;;;;;5118573;28;20873;-64
2022/10/17 05:19:00;;;;;;;5.43;4.30;;;14.00;99.90;;;;;;5129806;28;20451;-64
2022/10/17 05:21:28;;;;;;;6.20;4.10;;;14.00;99.90;;;;;;5117378;28;20449;-65
2022/10/17 05:23:55;;;;;;;6.37;4.10;;;14.00;99.90;;;;;;5101134;28;20465;-63
2022/10/17 05:26:23;;;;;;;4.40;4.00;;;14.00;99.90;;;;;;5117399;28;20441;-66
2022/10/17 05:28:51;;;;;;;6.90;4.13;;;14.00;99.90;;;;;;5116184;28;20469;-66
2022/10/17 05:31:18;;;;;;;4.60;4.20;;;14.10;99.90;;;;;;5116497;28;20450;-66
2022/10/17 05:33:45;;;;;;;5.07;4.50;;;14.10;99.90;;;;;;5116133;28;20496;-66
2022/10/17 05:36:13;;;;;;;4.47;3.73;;;14.10;99.90;;;;;;5116000;28;20465;-66
2022/10/17 05:38:39;;;;;;;4.43;4.03;;;14.10;99.90;;;;;;5116005;28;20449;-66
2022/10/17 05:41:06;;;;;;;4.87;4.30;;;14.10;99.90;;;;;;5115972;28;20452;-66
2022/10/17 05:43:34;;;;;;;4.20;3.80;;;14.10;99.90;;;;;;5116524;28;20473;-67
2022/10/17 05:46:04;;;;;;;7.03;4.23;;;14.10;99.90;;;;;;5116066;27;20442;-66
2022/10/17 05:48:31;;;;;;;3.87;3.57;;;14.20;99.90;;;;;;5115746;28;20442;-67
2022/10/17 05:50:59;;;;;;;8.53;4.00;;;14.20;99.90;;;;;;5115976;28;20441;-66
2022/10/17 05:53:30;;;;;;;8.13;4.10;;;14.20;99.90;;;;;;5116197;28;20515;-67
2022/10/17 05:55:58;;;;;;;7.33;4.23;;;14.30;99.90;;;;;;5115872;28;20430;-66
2022/10/17 05:58:24;;;;;;;4.10;3.70;;;14.20;99.90;;;;;;5116925;28;20920;-66
2022/10/17 06:00:51;;;;;;;4.00;3.70;;;14.30;99.90;;;;;;5116891;28;20809;-66
2022/10/17 06:03:18;;;;;;;4.47;4.07;;;14.30;99.90;;;;;;5116736;28;20465;-66
2022/10/17 06:05:45;;;;;;;4.50;3.70;;;14.30;99.90;;;;;;5116947;28;20448;-66
2022/10/17 06:08:12;;;;;;;5.53;3.90;;;14.40;99.90;;;;;;5116963;28;20546;-69
2022/10/17 06:10:40;;;;;;;4.20;3.80;;;14.40;99.90;;;;;;5116828;28;20465;-66
2022/10/17 06:13:06;;;;;;;5.00;4.50;;;14.40;99.90;;;;;;5115673;28;20465;-66
2022/10/17 06:15:33;;;;;;;4.97;3.80;;;14.50;99.90;;;;;;5114588;28;20457;-66
2022/10/17 06:18:00;;;;;;;4.60;3.67;;;14.50;99.90;;;;;;5115526;28;20448;-67
2022/10/17 06:20:27;;;;;;;4.07;3.70;;;14.50;99.90;;;;;;5115102;28;20456;-67
2022/10/17 06:22:53;;;;;;;4.27;3.87;;;14.50;99.90;;;;;;5104567;28;20454;-67
2022/10/17 06:25:20;;;;;;;4.67;3.83;;;14.60;99.90;;;;;;5116175;28;20440;-68
2022/10/17 06:27:48;;;;;;;4.30;3.90;;;14.60;99.90;;;;;;5115503;28;20456;-67
2022/10/17 06:30:15;;;;;;;3.77;3.47;;;14.60;99.90;;;;;;5115592;28;20481;-67
2022/10/17 06:32:42;;;;;;;6.97;3.70;;;14.70;99.90;;;;;;5114305;28;20461;-66
2022/10/17 06:35:09;;;;;;;4.73;4.00;;;14.70;99.90;;;;;;5115596;28;20459;-67
2022/10/17 06:37:36;;;;;;;7.60;4.20;;;14.70;99.90;;;;;;5115649;28;20476;-67
2022/10/17 06:40:03;;;;;;;5.23;3.73;;;14.70;99.90;;;;;;5116027;28;20437;-66
2022/10/17 06:42:30;;;;;;;3.73;3.43;;;14.80;99.90;;;;;;5115945;28;20473;-66
2022/10/17 06:44:58;;;;;;;5.30;3.70;;;14.90;99.90;;;;;;5116191;28;20449;-67
2022/10/17 06:47:25;;;;;;;4.03;3.60;;;15.00;99.90;;;;;;5115671;28;20437;-67
2022/10/17 06:49:51;;;;;;;5.30;4.80;;;15.00;99.90;;;;;;5116548;28;20509;-66
2022/10/17 06:52:18;;;;;;;9.43;4.60;;;15.10;99.90;;;;;;5115471;28;20445;-66
2022/10/17 06:54:45;;;;;;;3.70;3.40;;;15.20;99.90;;;;;;5114290;28;20933;-67
2022/10/17 06:57:12;;;;;;;5.23;3.80;;;15.40;99.90;;;;;;5114888;28;20500;-66
2022/10/17 06:59:39;;;;;;;4.40;3.60;;;15.50;99.90;;;;;;5114080;28;20940;-66
2022/10/17 07:02:08;;;;;;;3.47;3.00;;;15.60;99.90;;;;;;5113434;28;20809;-67
2022/10/17 07:04:35;;;;;;;3.60;3.30;;;15.80;99.90;;;;;;5114278;28;20446;-68
2022/10/17 07:07:02;;;;;;;3.67;2.93;;;15.90;99.90;;;;;;5114472;28;20541;-67
2022/10/17 07:09:29;;;;;;;2.87;2.67;;;15.90;99.90;;;;;;5114214;27;20488;-65
2022/10/17 07:11:57;;;;;;;4.47;3.17;;;15.90;99.90;;;;;;5114349;28;20442;-66
2022/10/17 07:14:30;;;;;;;4.50;3.50;;;15.90;99.90;;;;;;5115158;28;20479;-67
2022/10/17 07:16:57;;;;;;;4.10;3.37;;;15.90;99.90;;;;;;5115390;28;20509;-67
2022/10/17 07:19:25;;;;;;;5.93;4.07;;;15.90;99.90;;;;;;5116809;28;20488;-68
2022/10/17 07:21:52;;;;;;;3.40;3.10;;;16.00;99.90;;;;;;5114701;28;20912;-68
2022/10/17 07:24:19;;;;;;;4.53;3.10;;;16.10;99.90;;;;;;5114649;28;20465;-68
2022/10/17 07:26:46;;;;;;;3.40;2.93;;;16.30;99.90;;;;;;5116735;28;20441;-68
2022/10/17 07:29:13;;;;;;;3.93;3.33;;;16.50;99.90;;;;;;5115402;28;21138;-68
2022/10/17 07:31:40;;;;;;;4.07;3.37;;;16.80;99.90;;;;;;5114722;28;20452;-69
2022/10/17 07:34:07;;;;;;;3.53;2.83;;;17.00;99.90;;;;;;5117202;28;20511;-68
2022/10/17 07:36:35;;;;;;;4.47;3.00;;;17.20;99.90;;;;;;5115234;28;20447;-66
2022/10/17 07:39:01;;;;;;;3.50;2.73;;;17.50;99.90;;;;;;5115695;28;20455;-67
2022/10/17 07:41:28;;;;;;;3.20;2.90;;;17.70;99.90;;;;;;5117566;28;20445;-67
2022/10/17 07:43:56;;;;;;;5.40;3.30;;;17.80;99.90;;;;;;5117686;28;20470;-67
2022/10/17 07:46:22;;;;;;;3.97;3.10;;;17.90;99.90;;;;;;5116054;28;20448;-67
2022/10/17 07:48:49;;;;;;;3.90;3.27;;;17.90;99.90;;;;;;5116252;28;20901;-66
2022/10/17 07:51:17;;;;;;;5.73;2.57;;;18.00;99.90;;;;;;5115920;28;20489;-67
2022/10/17 07:53:45;;;;;;;7.97;2.83;;;18.00;99.90;;;;;;5116527;28;20505;-67
2022/10/17 07:56:12;;;;;;;3.13;2.83;;;18.00;99.90;;;;;;5115958;28;20453;-68
2022/10/17 07:58:39;;;;;;;4.90;3.87;;;18.10;99.90;;;;;;5116544;28;20452;-67
2022/10/17 08:01:13;;;;;;;5.20;2.83;;;18.10;99.90;;;;;;5116810;28;20447;-67
2022/10/17 08:03:40;;;;;;;3.37;2.60;;;18.10;99.90;;;;;;5117152;28;20465;-66
2022/10/17 08:06:07;;;;;;;4.43;2.73;;;18.10;99.90;;;;;;5118143;28;20441;-67
2022/10/17 08:08:34;;;;;;;3.30;3.00;;;18.10;99.90;;;;;;5114364;28;20460;-66
2022/10/17 08:11:05;;;;;;;3.30;2.63;;;18.20;99.90;;;;;;5117012;28;20480;-66
2022/10/17 08:13:31;;;;;;;3.60;3.30;;;18.30;99.90;;;;;;5116041;28;20465;-65
2022/10/17 08:16:03;;;;;;;4.90;2.77;;;18.40;99.90;;;;;;5115723;28;20441;-66
2022/10/17 08:18:30;;;;;;;4.27;3.03;;;18.50;99.90;;;;;;5117109;28;20433;-68
2022/10/17 08:21:00;;;;;;;3.70;2.70;;;18.60;99.90;;;;;;5116459;28;20517;-69
2022/10/17 08:23:27;;;;;;;4.20;2.93;;;18.70;99.90;;;;;;5115628;28;20461;-67
2022/10/17 08:25:53;;;;;;;8.13;3.10;;;18.80;99.90;;;;;;5115416;28;20502;-67
2022/10/17 08:28:21;;;;;;;5.70;3.00;;;18.90;99.90;;;;;;5114740;28;20441;-68
2022/10/17 08:30:48;;;;;;;3.40;3.10;;;19.00;99.90;;;;;;5114599;28;20488;-69
2022/10/17 08:33:15;;;;;;;4.40;3.00;;;19.00;99.90;;;;;;5115706;28;20469;-68
2022/10/17 08:35:42;;;;;;;4.90;2.97;;;19.10;99.90;;;;;;5115576;28;20442;-69
2022/10/17 08:38:09;;;;;;;5.43;3.00;;;19.20;99.90;;;;;;5116799;28;20448;-68
2022/10/17 08:40:41;;;;;;;3.87;2.50;;;19.20;99.90;;;;;;5114517;28;20438;-68
2022/10/17 08:43:31;;;;;;;7.13;4.20;;;19.20;99.90;;;;;;5115611;28;20465;-69
2022/10/17 08:46:20;;;;;;;9.87;3.20;;;19.30;99.90;;;;;;5115370;28;20457;-67
2022/10/17 08:48:49;;;;;;;6.23;3.20;;;19.40;99.90;;;;;;5113606;28;20442;-68
2022/10/17 08:51:19;;;;;;;4.47;3.10;;;19.40;99.90;;;;;;5114019;28;20927;-66
2022/10/17 08:53:52;;;;;;;4.07;3.40;;;19.50;99.90;;;;;;5113349;28;20454;-68
2022/10/17 08:56:20;;;;;;;4.13;2.83;;;19.60;99.90;;;;;;5115847;28;20425;-68
2022/10/17 08:58:48;;;;;;;4.07;2.83;;;19.60;99.90;;;;;;5117820;28;20449;-68
2022/10/17 09:01:32;;;;;;;3.83;2.40;;;19.70;99.90;;;;;;5117931;28;20445;-66
2022/10/17 09:04:16;;;;;;;5.03;3.23;;;19.70;99.90;;;;;;5117609;28;20549;-66
2022/10/17 09:06:51;;;;;;;3.57;3.27;;;19.80;99.90;;;;;;5117766;28;20422;-68
2022/10/17 09:09:29;;;;;;;3.27;2.90;;;19.80;99.90;;;;;;5117614;28;20820;-68
2022/10/17 09:12:10;;;;;;;5.73;3.43;;;19.90;99.90;;;;;;5118175;28;20420;-68
2022/10/17 09:15:00;;;;;;;4.70;3.23;;;20.00;99.90;;;;;;5118278;28;20419;-67
2022/10/17 09:17:37;;;;;;;6.63;3.70;;;20.00;99.90;;;;;;5117097;28;20422;-67
2022/10/17 09:20:10;;;;;;;4.67;2.73;;;20.10;99.90;;;;;;5118309;28;20423;-67
2022/10/17 09:22:41;;;;;;;4.33;2.77;;;20.10;99.90;;;;;;5117765;28;20461;-68
2022/10/17 09:25:13;;;;;;;3.73;2.90;;;20.20;99.90;;;;;;5118527;28;20429;-69
2022/10/17 09:27:43;;;;;;;3.13;2.70;;;20.20;99.90;;;;;;5119433;28;20427;-68
2022/10/17 09:30:28;;;;;;;4.53;3.30;;;20.30;99.90;;;;;;5118895;28;20489;-67
2022/10/17 09:32:55;;;;;;;4.20;3.03;;;20.30;99.90;;;;;;5138552;22;20486;-63
2022/10/17 09:35:23;;;;;;;3.17;2.83;;;20.30;99.90;;;;;;5097940;28;20447;-63
2022/10/17 09:37:50;;;;;;;5.47;3.20;;;20.30;99.90;;;;;;5098968;28;20788;-63
2022/10/17 09:40:23;;;;;;;6.80;2.80;;;20.40;99.90;;;;;;5100231;28;20430;-64
2022/10/17 09:42:51;;;;;;;4.73;3.00;;;20.50;99.90;;;;;;5097700;28;20459;-63
2022/10/17 09:45:24;;;;;;;4.93;3.20;;;20.50;99.90;;;;;;5097897;28;20452;-63
2022/10/17 09:47:58;;;;;;;3.83;3.53;;;20.60;99.90;;;;;;5096533;28;20433;-63
2022/10/17 09:50:28;;;;;;;6.70;2.73;;;20.80;99.90;;;;;;5096577;28;20463;-63
2022/10/17 09:52:56;;;;;;;3.83;2.90;;;20.90;99.90;;;;;;5096698;28;20554;-63
2022/10/17 09:55:31;;;;;;;5.17;4.50;;;21.00;99.90;;;;;;5096101;28;20457;-62
2022/10/17 09:58:00;;;;;;;5.60;2.67;;;21.10;99.90;;;;;;5096331;28;20425;-63
2022/10/17 10:00:32;;;;;;;3.93;2.63;;;21.20;99.90;;;;;;5096615;28;20436;-62
2022/10/17 10:03:10;;;;;;;5.20;2.97;;;21.30;99.90;;;;;;5096017;28;20463;-63
2022/10/17 10:05:37;;;;;;;2.90;2.67;;;21.30;99.90;;;;;;5095612;28;20539;-63
2022/10/17 10:08:06;;;;;;;4.07;3.70;;;21.40;99.90;;;;;;5096243;28;20442;-63
2022/10/17 10:10:33;;;;;;;10.17;3.87;;;21.50;99.90;;;;;;5095442;28;20484;-63
2022/10/17 10:13:06;;;;;;;3.80;3.00;;;21.60;99.90;;;;;;5095457;28;20458;-63
2022/10/17 10:15:37;;;;;;;4.20;2.77;;;21.60;99.90;;;;;;5095793;28;20460;-63
2022/10/17 10:18:26;;;;;;;4.47;3.17;;;21.70;99.80;;;;;;5096201;28;20433;-63
2022/10/17 10:21:05;;;;;;;4.40;3.17;;;21.80;99.40;;;;;;5095225;28;20433;-61
2022/10/17 10:23:32;;;;;;;3.70;3.20;;;22.00;98.80;;;;;;5095685;28;20487;-62
2022/10/17 10:26:02;;;;;;;3.40;3.10;;;22.10;98.30;;;;;;5094746;28;20437;-63
2022/10/17 10:28:32;;;;;;;10.07;3.23;;;22.10;97.90;;;;;;5091916;28;20453;-66
2022/10/17 10:31:04;;;;;;;4.37;2.93;;;22.20;97.60;;;;;;5095277;28;20472;-61
2022/10/17 10:33:33;;;;;;;4.13;3.00;;;22.30;97.20;;;;;;5095239;28;20474;-62
2022/10/17 10:36:02;;;;;;;4.57;2.77;;;22.40;96.80;;;;;;5094761;28;20450;-62
2022/10/17 10:38:30;;;;;;;5.97;3.20;;;22.40;96.50;;;;;;5094461;28;20955;-63
2022/10/17 10:41:02;;;;;;;3.53;3.23;;;22.50;96.20;;;;;;5095113;28;20442;-62
2022/10/17 10:43:33;;;;;;;3.83;2.73;;;22.50;95.80;;;;;;5094639;28;20937;-62
2022/10/17 10:46:04;;;;;;;5.00;3.30;;;22.50;95.60;;;;;;5094897;28;20438;-62
2022/10/17 10:48:34;;;;;;;3.43;3.13;;;22.40;95.40;;;;;;5095759;28;20447;-62
2022/10/17 10:51:05;;;;;;;6.20;2.60;;;22.40;95.40;;;;;;5094610;28;20477;-62
2022/10/17 10:53:44;;;;;;;4.37;2.97;;;22.30;95.20;;;;;;5095477;28;20462;-63
2022/10/17 10:56:15;;;;;;;3.33;3.03;;;22.30;95.20;;;;;;5095238;28;20426;-61
2022/10/17 10:58:50;;;;;;;2.77;2.47;;;22.30;95.10;;;;;;5093889;28;20888;-63
2022/10/17 11:01:25;;;;;;;5.80;3.17;;;22.30;94.90;;;;;;5094981;28;20430;-63
2022/10/17 11:04:12;;;;;;;5.57;3.37;;;22.40;94.80;;;;;;5094449;28;20468;-63
2022/10/17 11:06:43;;;;;;;4.23;2.90;;;22.40;94.60;;;;;;5095524;28;20443;-63
2022/10/17 11:09:24;;;;;;;3.80;3.10;;;22.50;94.50;;;;;;5094851;28;20425;-62
2022/10/17 11:11:58;;;;;;;4.77;2.90;;;22.60;94.30;;;;;;5094732;28;20467;-63
2022/10/17 11:14:38;;;;;;;3.50;2.57;;;22.70;94.00;;;;;;5093634;28;21006;-61
2022/10/17 11:17:16;;;;;;;3.57;2.93;;;22.80;93.70;;;;;;5093824;28;20437;-64
2022/10/17 11:19:50;;;;;;;7.53;2.53;;;22.80;93.30;;;;;;5092970;28;20529;-62
2022/10/17 11:22:25;;;;;;;6.60;3.17;;;22.80;92.90;;;;;;5093655;28;20438;-62
2022/10/17 11:24:58;;;;;;;10.50;3.50;;;22.80;92.40;;;;;;5092507;28;20442;-62
2022/10/17 11:27:28;;;;;;;7.20;3.23;;;22.70;92.00;;;;;;5093114;28;20438;-65
2022/10/17 11:29:55;;;;;;;6.33;2.50;;;22.60;91.70;;;;;;5093006;28;20934;-63
2022/10/17 11:32:29;;;;;;;4.70;3.10;;;22.50;91.40;;;;;;5093513;28;20487;-63
2022/10/17 11:35:00;;;;;;;3.50;2.60;;;22.50;91.30;;;;;;5094105;28;20515;-63
2022/10/17 11:37:32;;;;;;;4.77;2.57;;;22.50;91.10;;;;;;5093455;28;20924;-62
2022/10/17 11:40:03;;;;;;;3.30;2.80;;;22.50;90.90;;;;;;5093105;28;20449;-63
2022/10/17 11:42:34;;;;;;;4.30;2.80;;;22.50;90.70;;;;;;5073156;28;20429;-63
2022/10/17 11:45:04;;;;;;;2.60;2.40;;;22.60;90.50;;;;;;5073067;28;20539;-63
2022/10/17 11:47:43;;;;;;;3.33;2.97;;;22.60;90.20;;;;;;5073013;28;20453;-63
2022/10/17 11:50:23;;;;;;;3.80;2.60;;;22.70;90.10;;;;;;5073406;28;20428;-64
2022/10/17 11:52:53;;;;;;;3.80;2.53;;;22.70;89.80;;;;;;5074797;28;20531;-62
2022/10/17 11:55:23;;;;;;;4.77;3.20;;;22.80;89.40;;;;;;5075657;28;20446;-64
2022/10/17 11:57:58;;;;;;;4.70;2.70;;;22.80;88.80;;;;;;5078966;28;20938;-63
2022/10/17 12:00:33;;;;;;;3.60;2.90;;;22.80;88.40;;;;;;5082171;28;20820;-63
2022/10/17 12:03:13;;;;;;;3.03;2.70;;;22.90;88.10;;;;;;5078327;28;20564;-61
2022/10/17 12:05:48;;;;;;;4.70;3.40;;;22.90;87.80;;;;;;5073565;28;20431;-63
2022/10/17 12:08:24;;;;;;;3.67;2.80;;;22.90;87.40;;;;;;5073565;28;20434;-63
2022/10/17 12:10:57;;;;;;;5.30;3.20;;;22.90;87.30;;;;;;5074202;28;20920;-63
2022/10/17 12:13:47;;;;;;;6.50;2.60;;;22.90;87.10;;;;;;5074609;28;20463;-62
2022/10/17 12:16:49;;;;;;;4.63;3.00;;;22.90;87.20;;;;;;5074554;28;20446;-63
2022/10/17 12:19:32;;;;;;;3.03;2.80;;;22.90;86.70;;;;;;5074711;28;20461;-64
2022/10/17 12:22:18;;;;;;;4.47;2.77;;;22.90;86.60;;;;;;5073775;28;20476;-63
2022/10/17 12:24:54;;;;;;;4.03;3.10;;;22.90;86.60;;;;;;5073691;28;20966;-63
2022/10/17 12:27:44;;;;;;;3.20;2.90;;;23.00;86.40;;;;;;5074343;28;20453;-62
2022/10/17 12:30:23;;;;;;;3.37;2.87;;;22.90;86.00;;;;;;5075438;28;20439;-63
2022/10/17 12:32:56;;;;;;;3.93;3.20;;;22.90;85.70;;;;;;5079237;28;20522;-63
2022/10/17 12:35:26;;;;;;;4.93;2.40;;;23.00;85.50;;;;;;5080214;28;20431;-64
2022/10/17 12:38:18;;;;;;;6.63;2.47;;;23.00;85.50;;;;;;5077996;28;20907;-63
2022/10/17 12:41:04;;;;;;;4.60;2.67;;;23.00;85.20;;;;;;5078372;28;20443;-62
2022/10/17 12:43:50;;;;;;;5.07;2.90;;;23.00;84.90;;;;;;5078200;28;20454;-64
2022/10/17 12:46:54;;;;;;;5.63;2.90;;;23.10;84.80;;;;;;5077607;28;20451;-64
2022/10/17 12:49:39;;;;;;;3.23;2.93;;;23.10;84.40;;;;;;5079129;28;20480;-63
2022/10/17 12:52:25;;;;;;;3.47;2.57;;;23.20;84.10;;;;;;5080110;28;20474;-64
2022/10/17 12:55:06;;;;;;;6.30;3.17;;;23.20;83.50;;;;;;5079930;28;20434;-63
2022/10/17 12:57:39;;;;;;;4.27;2.90;;;23.30;82.90;;;;;;5079771;28;20426;-65
2022/10/17 13:00:16;;;;;;;9.90;3.53;;;23.30;82.20;;;;;;5079883;28;20923;-63
2022/10/17 13:02:44;;;;;;;3.60;3.30;;;23.40;81.90;;;;;;5080942;28;20454;-63
2022/10/17 13:05:16;;;;;;;4.30;3.10;;;23.40;81.60;;;;;;5079600;28;20526;-63